Brandon Municipal Airport
CYBR : now visible

Airfield :











YOU CAN JOIN US ON...

 
LOGIN :

Register | Disclaimer

   EN    FR    IT 

 









Legend :    VFR   Marginal VFR   IFR   Intensive IFR   Very Intensive IFR
Visi :
Ceiling :
>= 8 km
>= 3000ft
5 to 8 km
1000 to 3000 ft
1500m to 5 km
500 to 1000 ft
800 to 1500m
200 to 500 ft
< 800m
< 200 ft
Symbols :   Thunderstorms  Fog  Heavy snow  Heavy precipitations  Wind > 20 kt






- Airport Elevation : 1343 ft
- IATA code : YBR


CYBR - Brandon Municipal

CURRENT METAR :
  • 290100Z 22007KT 15SM FEW120 FEW180 OVC250 10/04 A2996 RMK AC1AC1CI6 SLP158

EXPIRED METARs :
  • 290000Z 30007KT 15SM FEW180 OVC250 11/04 A2999 RMK AC2CI6 SLP169
  • 282300Z 30010KT 15SM FEW180 OVC250 12/04 A3001 RMK AC2CI6 SLP176

TAF TAF CYBR
Valid from the 29 at 00:00 until the 29 at 12:00 UTC


282338Z 2900/2912 30010KT P6SM FEW180 OVC250
FM290300 27008KT P6SM BKN090 OVC250
FM290900 30010KT P6SM SCT090 RMK NXT FCST BY 290600Z
CZWG FIR / North America



MET'MAP, your aeronautical weather chart ! - Copyright ORBIFLY December 2007 - Disclaimer

ORBIFLY MET'MAP TEAM :

Programming & Development : Alexandra Zaïnal
Concept & original design : Baudouin d'Aumeries
Assistance for programming : Marc-Olivier Méhu
Technical & hardware support : Manuel Goepfert

Contact : metmap@orbifly.com




SOURCES & CREDITS :

   NOAA       Earth
Advisory